Tallahassee Regional Airport
KTLH : now visible

Airfield :











YOU CAN JOIN US ON...

 
LOGIN :

Register | Disclaimer

   EN    FR    IT 

 









Legend :    VFR   Marginal VFR   IFR   Intensive IFR   Very Intensive IFR
Visi :
Ceiling :
>= 8 km
>= 3000ft
5 to 8 km
1000 to 3000 ft
1500m to 5 km
500 to 1000 ft
800 to 1500m
200 to 500 ft
< 800m
< 200 ft
Symbols :   Thunderstorms  Fog  Heavy snow  Heavy precipitations  Wind > 20 kt






- Airport Elevation : 81 ft
- IATA code : TLH


KTLH - Tallahassee Regional

CURRENT METAR :
  • 021853Z 17007KT 10SM BKN042 BKN060 28/23 A2995 RMK AO2 LTG DSNT S-NW RAB33E52 TSE00B21E52 PRESFR SLP141 P0002 T02830233

EXPIRED METARs :
  • 021822Z 18018G21KT 10SM TS SCT050CB 33/23 A2997 RMK AO2 LTG DSNT SE-W TSE00B21 OCNL LTGICCG S-W TSS-W MOV E T03280233
  • 021753Z VRB05KT 10SM SCT050 34/22 A2996 RMK AO2 LTG DSNT SE-W SLP145 T03440217 10350 20256 58016 $
  • 021653Z 24006KT 10SM SCT040 33/23 A2999 RMK AO2 LTG DSNT S AND SW SLP153 T03330233 $

TAF KTLH
Valid from the 02 at 18:00 until the 03 at 18:00 UTC


021740Z 0218/0318 22008KT P6SM VCTS SCT035CB BKN050
FM021900 28007KT 3SM TSRA SCT025 BKN040CB
FM030200 VRB03KT 6SM SHRA SCT015 BKN040 OVC150
FM030600 12003KT P6SM VCSH SCT008 BKN040 OVC080
PROB30 0309/0314 4SM TSRA BKN010CB
KZJX FIR / North America



MET'MAP, your aeronautical weather chart ! - Copyright ORBIFLY December 2007 - Disclaimer

ORBIFLY MET'MAP TEAM :

Programming & Development : Alexandra Zaïnal
Concept & original design : Baudouin d'Aumeries
Assistance for programming : Marc-Olivier Méhu
Technical & hardware support : Manuel Goepfert

Contact : metmap@orbifly.com




SOURCES & CREDITS :

   NOAA       Earth
Advisory